Time;durP1;ratioP1;P1;durP2;ratioP2;P2;SDS_P1;SDS_P2;PMS_P1;PMS_P2;Temp;Humidity;BMP_temperature;BMP_pressure;BME280_temperature;BME280_humidity;BME280_pressure;Samples;Min_cycle;Max_cycle;Signal;HPM_P1;HPM_P2
2021/05/28 02:47:38;;;;;;;5.15;4.50;;;6.90;99.90;;;;;;5346376;22;93888;-84
2021/05/28 02:50:05;;;;;;;6.22;4.28;;;6.90;99.90;;;;;;4971443;28;89861;-84
2021/05/28 02:52:31;;;;;;;6.47;4.93;;;6.90;99.90;;;;;;4973576;28;86926;-86
2021/05/28 02:54:57;;;;;;;5.22;4.15;;;6.90;99.90;;;;;;4972645;28;86998;-86
2021/05/28 02:57:23;;;;;;;4.20;3.80;;;6.90;99.90;;;;;;4953165;28;86936;-85
2021/05/28 02:59:48;;;;;;;4.78;4.35;;;6.90;99.90;;;;;;4972121;28;88015;-86
2021/05/28 03:02:14;;;;;;;4.50;3.90;;;6.80;99.90;;;;;;4961720;28;90728;-85
2021/05/28 03:04:40;;;;;;;5.10;4.45;;;6.80;99.90;;;;;;4968893;28;86956;-84
2021/05/28 03:07:06;;;;;;;4.85;4.35;;;6.80;99.90;;;;;;4975232;28;86978;-85
2021/05/28 03:09:31;;;;;;;4.97;4.35;;;6.80;99.90;;;;;;4974173;28;87083;-86
2021/05/28 03:11:57;;;;;;;5.40;4.38;;;6.80;99.90;;;;;;4966423;28;87060;-84
2021/05/28 03:14:23;;;;;;;6.78;4.40;;;6.80;99.90;;;;;;4977348;28;87197;-85
2021/05/28 03:16:48;;;;;;;5.85;4.60;;;6.80;99.90;;;;;;4970910;28;86861;-86
2021/05/28 03:19:28;;;;;;;5.13;4.63;;;6.80;99.90;;;;;;4970677;28;87568;-86
2021/05/28 03:24:38;;;;;;;4.70;4.30;;;;;;;;;;4968227;28;88255;-86
2021/05/28 03:27:04;;;;;;;5.40;4.47;;;6.80;99.90;;;;;;4977672;28;87178;-85
2021/05/28 03:29:30;;;;;;;4.63;4.13;;;6.70;99.90;;;;;;5002260;28;87831;-85
2021/05/28 03:31:56;;;;;;;5.13;4.47;;;6.70;99.90;;;;;;4975506;28;87191;-84
2021/05/28 03:34:21;;;;;;;6.65;4.50;;;6.70;99.90;;;;;;4985999;28;87332;-84
2021/05/28 03:36:48;;;;;;;4.85;4.10;;;6.70;99.90;;;;;;4980513;28;87187;-86
2021/05/28 03:39:14;;;;;;;6.97;4.28;;;6.70;99.90;;;;;;4966573;28;87790;-85
2021/05/28 03:41:39;;;;;;;4.60;4.20;;;6.70;99.90;;;;;;4970990;28;87925;-87
2021/05/28 03:44:05;;;;;;;4.90;3.75;;;6.70;99.90;;;;;;4965751;28;86850;-85
2021/05/28 03:46:32;;;;;;;5.00;4.10;;;6.60;99.90;;;;;;4965934;28;91011;-84
2021/05/28 03:48:57;;;;;;;5.30;4.60;;;6.60;99.90;;;;;;4908601;28;91412;-84
2021/05/28 03:51:23;;;;;;;5.43;4.38;;;6.70;99.90;;;;;;4915411;28;88371;-84
2021/05/28 03:53:49;;;;;;;4.82;4.32;;;6.60;99.90;;;;;;4913361;28;86945;-83
2021/05/28 03:56:15;;;;;;;5.05;4.55;;;6.60;99.90;;;;;;4915454;28;87144;-84
2021/05/28 03:58:42;;;;;;;5.30;4.65;;;6.60;99.90;;;;;;4913355;28;87060;-84
2021/05/28 04:01:08;;;;;;;6.15;4.30;;;6.60;99.90;;;;;;4910818;28;86919;-83
2021/05/28 04:03:34;;;;;;;5.03;4.35;;;6.70;99.90;;;;;;4914120;28;87042;-84
2021/05/28 04:05:59;;;;;;;6.43;4.68;;;6.70;99.90;;;;;;4924723;28;86434;-86
2021/05/28 04:08:25;;;;;;;5.00;4.55;;;6.70;99.90;;;;;;4926703;28;87558;-83
2021/05/28 04:10:51;;;;;;;6.47;4.40;;;6.80;99.90;;;;;;4928625;28;86989;-85
2021/05/28 04:13:16;;;;;;;6.25;4.57;;;6.80;99.90;;;;;;4913410;28;87804;-83
2021/05/28 04:15:43;;;;;;;6.63;4.15;;;6.80;99.90;;;;;;4910414;28;87119;-84
2021/05/28 04:18:09;;;;;;;4.65;4.25;;;6.80;99.90;;;;;;4913264;28;87972;-85
2021/05/28 04:20:36;;;;;;;4.50;3.97;;;6.90;99.90;;;;;;4926970;28;87052;-85
2021/05/28 04:23:02;;;;;;;5.47;4.35;;;7.00;99.90;;;;;;4913962;28;86846;-82
2021/05/28 04:25:27;;;;;;;5.57;4.20;;;7.00;99.90;;;;;;4914504;28;87025;-84
2021/05/28 04:27:53;;;;;;;6.45;4.38;;;7.20;99.90;;;;;;4920931;28;86988;-84
2021/05/28 04:30:23;;;;;;;5.07;4.22;;;7.20;99.90;;;;;;4926718;28;86998;-84
2021/05/28 04:32:53;;;;;;;5.23;4.03;;;7.30;99.90;;;;;;4928164;28;86520;-84
2021/05/28 04:35:19;;;;;;;4.75;4.30;;;7.30;99.90;;;;;;4923267;28;87244;-82
2021/05/28 04:37:45;;;;;;;4.82;4.30;;;7.40;99.90;;;;;;4915191;28;87892;-83
2021/05/28 04:40:11;;;;;;;5.40;4.40;;;7.40;99.90;;;;;;4921807;28;87935;-84
2021/05/28 04:42:37;;;;;;;4.55;4.00;;;7.60;99.90;;;;;;4926663;28;87053;-83
2021/05/28 04:45:05;;;;;;;4.90;4.07;;;7.70;99.90;;;;;;4925152;28;86600;-84
2021/05/28 04:47:32;;;;;;;5.97;4.85;;;7.70;99.90;;;;;;4947090;28;87635;-82
2021/05/28 04:49:59;;;;;;;5.13;3.75;;;7.80;99.90;;;;;;4968392;28;87702;-83
2021/05/28 04:52:25;;;;;;;4.30;3.97;;;7.90;99.90;;;;;;4954651;28;86853;-84
2021/05/28 04:54:50;;;;;;;6.03;4.60;;;8.00;99.90;;;;;;4948205;28;85823;-84
2021/05/28 04:57:16;;;;;;;5.97;4.07;;;8.20;99.90;;;;;;4953648;28;87695;-84
2021/05/28 04:59:42;;;;;;;5.70;3.92;;;8.30;99.90;;;;;;4966932;28;86906;-84
2021/05/28 05:02:08;;;;;;;5.78;3.90;;;8.40;99.90;;;;;;4956663;28;87657;-85
2021/05/28 05:04:34;;;;;;;4.10;3.65;;;8.50;99.90;;;;;;4963211;28;87047;-86
2021/05/28 05:06:59;;;;;;;5.10;4.10;;;8.60;99.90;;;;;;4959568;28;87219;-83
2021/05/28 05:09:25;;;;;;;6.57;3.85;;;8.70;99.90;;;;;;4967068;28;87808;-85
2021/05/28 05:11:51;;;;;;;5.07;3.83;;;;;;;;;;4956458;28;87301;-86
2021/05/28 05:14:18;;;;;;;3.70;3.40;;;8.90;99.90;;;;;;4951343;28;87218;-88
2021/05/28 05:16:44;;;;;;;4.18;3.70;;;9.10;99.90;;;;;;4960192;28;87859;-86
2021/05/28 05:19:09;;;;;;;6.22;3.55;;;9.20;99.90;;;;;;4962533;28;86343;-87
2021/05/28 05:21:35;;;;;;;4.95;3.72;;;9.40;99.90;;;;;;4959204;28;86897;-88
2021/05/28 05:24:01;;;;;;;4.80;3.70;;;9.40;99.90;;;;;;4959992;28;87144;-87
2021/05/28 05:26:26;;;;;;;4.22;3.75;;;9.50;99.90;;;;;;4966555;28;87810;-88
2021/05/28 05:28:52;;;;;;;3.85;3.55;;;9.50;99.90;;;;;;4957658;28;87753;-88
2021/05/28 05:31:18;;;;;;;3.47;3.15;;;9.60;99.90;;;;;;4969169;28;86876;-88
2021/05/28 05:33:43;;;;;;;4.13;3.55;;;9.70;99.90;;;;;;4968531;28;87057;-90
2021/05/28 05:36:09;;;;;;;3.60;3.30;;;9.80;99.90;;;;;;4971072;28;87835;-88
2021/05/28 05:38:35;;;;;;;4.57;3.53;;;9.90;99.90;;;;;;4957379;28;87051;-86
2021/05/28 05:41:00;;;;;;;4.00;3.50;;;9.90;99.90;;;;;;4968137;28;86593;-86
2021/05/28 05:43:26;;;;;;;3.40;3.10;;;10.00;99.90;;;;;;4965299;28;86306;-85
2021/05/28 05:45:52;;;;;;;4.05;3.50;;;10.10;99.90;;;;;;4963393;28;88485;-89
2021/05/28 05:48:18;;;;;;;3.67;3.13;;;10.10;99.90;;;;;;4955324;28;86956;-88
2021/05/28 05:50:43;;;;;;;3.72;3.42;;;10.20;99.90;;;;;;4968800;28;87713;-87
2021/05/28 05:53:09;;;;;;;5.90;3.10;;;10.30;99.90;;;;;;4953781;28;86849;-88
2021/05/28 05:55:35;;;;;;;3.83;3.25;;;10.30;99.90;;;;;;4966551;28;88301;-89
2021/05/28 05:58:00;;;;;;;4.63;3.72;;;10.50;99.90;;;;;;4968273;28;87378;-87
2021/05/28 06:00:26;;;;;;;4.13;3.75;;;;;;;;;;4963030;28;86374;-88
2021/05/28 06:02:52;;;;;;;3.15;2.88;;;10.70;99.90;;;;;;4967669;28;86888;-85
2021/05/28 06:05:18;;;;;;;6.15;3.58;;;10.80;99.90;;;;;;4960418;28;87280;-86
2021/05/28 06:07:45;;;;;;;6.18;3.22;;;10.90;99.90;;;;;;4966894;28;86831;-86
2021/05/28 06:10:12;;;;;;;3.45;3.15;;;11.00;99.90;;;;;;4957570;28;86226;-87
2021/05/28 06:12:38;;;;;;;4.97;3.15;;;11.00;99.90;;;;;;4966301;28;87211;-86
2021/05/28 06:15:05;;;;;;;3.90;3.15;;;11.10;99.90;;;;;;4961770;28;88000;-87
2021/05/28 06:17:31;;;;;;;3.50;3.20;;;;;;;;;;4954292;28;87187;-87
2021/05/28 06:19:56;;;;;;;3.60;2.88;;;11.30;99.90;;;;;;4956299;28;86901;-85
2021/05/28 06:22:22;;;;;;;3.50;3.20;;;11.40;99.90;;;;;;4966279;28;86783;-85
2021/05/28 06:24:51;;;;;;;3.03;2.67;;;11.50;99.90;;;;;;4955121;28;86824;-86
2021/05/28 06:27:17;;;;;;;3.08;2.58;;;11.60;99.90;;;;;;4965777;28;87306;-86
2021/05/28 06:29:43;;;;;;;2.97;2.78;;;11.70;99.90;;;;;;4966234;28;86938;-87
2021/05/28 06:32:09;;;;;;;2.97;2.75;;;;;;;;;;4933915;28;86344;-86
2021/05/28 06:34:35;;;;;;;3.10;2.90;;;12.00;99.90;;;;;;4960000;28;86830;-87
2021/05/28 06:37:01;;;;;;;2.90;2.67;;;12.10;99.90;;;;;;4952503;28;87054;-87
2021/05/28 06:39:27;;;;;;;2.60;2.40;;;;;;;;;;4954239;28;87817;-87
2021/05/28 06:41:53;;;;;;;3.13;2.83;;;12.40;99.90;;;;;;4966360;28;86903;-86
2021/05/28 06:44:23;;;;;;;3.63;3.33;;;12.40;99.90;;;;;;4966297;28;87116;-85
2021/05/28 06:46:51;;;;;;;4.85;4.47;;;12.60;99.90;;;;;;4957954;28;87014;-86
2021/05/28 06:49:17;;;;;;;4.38;3.97;;;12.70;99.90;;;;;;4962178;28;87661;-86
2021/05/28 06:51:42;;;;;;;4.30;3.90;;;12.80;99.90;;;;;;4965332;28;86896;-86
2021/05/28 06:54:08;;;;;;;4.32;3.90;;;12.90;99.90;;;;;;4942820;28;88766;-86
2021/05/28 06:56:34;;;;;;;3.30;2.83;;;13.00;99.90;;;;;;4961725;28;87765;-87
2021/05/28 06:59:00;;;;;;;3.10;2.72;;;13.00;99.90;;;;;;4965376;28;86980;-85
2021/05/28 07:01:25;;;;;;;2.50;2.30;;;13.00;99.90;;;;;;4964485;28;87118;-85
2021/05/28 07:03:51;;;;;;;2.67;2.47;;;13.00;99.90;;;;;;4954135;28;88668;-85
2021/05/28 07:06:17;;;;;;;2.47;2.20;;;13.10;99.90;;;;;;4953252;28;87080;-86
2021/05/28 07:08:45;;;;;;;3.80;2.25;;;13.30;99.90;;;;;;4964706;28;86339;-85
2021/05/28 07:11:11;;;;;;;2.67;2.58;;;13.40;99.90;;;;;;4963319;28;86442;-85
2021/05/28 07:13:36;;;;;;;2.97;2.50;;;13.50;99.90;;;;;;4945722;28;87277;-87
2021/05/28 07:16:02;;;;;;;2.63;2.42;;;13.50;98.20;;;;;;4961813;28;86937;-86
2021/05/28 07:18:28;;;;;;;3.53;3.22;;;13.50;98.60;;;;;;4965273;28;87389;-86
2021/05/28 07:20:54;;;;;;;3.22;3.00;;;13.60;99.20;;;;;;4953594;28;86144;-88
2021/05/28 07:23:22;;;;;;;3.38;2.67;;;13.70;98.30;;;;;;4952289;28;87490;-86
2021/05/28 07:25:48;;;;;;;3.15;2.95;;;13.70;98.50;;;;;;4947475;28;86828;-86
2021/05/28 07:28:14;;;;;;;3.88;3.20;;;13.90;99.40;;;;;;4928800;28;87918;-85
2021/05/28 07:30:40;;;;;;;5.80;3.72;;;14.00;99.90;;;;;;4962503;28;86847;-85
2021/05/28 07:33:05;;;;;;;4.25;3.10;;;14.20;99.90;;;;;;4960120;28;88107;-87
2021/05/28 07:35:31;;;;;;;6.30;3.92;;;14.30;99.90;;;;;;4958424;28;87086;-86
2021/05/28 07:37:57;;;;;;;4.45;3.42;;;14.40;99.90;;;;;;4957937;28;87349;-83
2021/05/28 07:40:22;;;;;;;3.47;3.17;;;14.60;99.90;;;;;;4964927;28;86805;-84
2021/05/28 07:42:48;;;;;;;5.53;3.35;;;14.80;99.90;;;;;;4957217;28;87012;-85
2021/05/28 07:45:14;;;;;;;4.97;3.13;;;15.00;99.90;;;;;;4960967;28;86297;-85
2021/05/28 07:47:41;;;;;;;5.70;3.60;;;15.10;99.90;;;;;;4957952;28;86803;-83
2021/05/28 07:50:08;;;;;;;4.80;3.00;;;15.20;99.90;;;;;;4953543;28;86979;-84
2021/05/28 07:52:34;;;;;;;4.22;3.75;;;15.40;99.90;;;;;;4957393;28;91148;-85
2021/05/28 07:55:00;;;;;;;4.00;3.63;;;15.60;99.90;;;;;;4964280;28;88355;-85
2021/05/28 07:57:25;;;;;;;4.32;3.92;;;15.60;99.90;;;;;;4948544;28;86985;-85
2021/05/28 07:59:51;;;;;;;4.20;3.80;;;15.70;99.90;;;;;;4960954;28;86947;-84
2021/05/28 08:02:18;;;;;;;4.45;4.05;;;15.80;99.90;;;;;;4959134;28;87033;-85
2021/05/28 08:04:45;;;;;;;4.15;3.75;;;15.90;99.20;;;;;;4964422;28;88156;-84
2021/05/28 08:07:11;;;;;;;4.47;4.07;;;15.90;98.30;;;;;;4944814;28;86934;-85
2021/05/28 08:09:36;;;;;;;4.70;4.30;;;15.90;98.70;;;;;;4962454;28;86805;-85
2021/05/28 08:12:02;;;;;;;4.90;4.30;;;16.00;98.90;;;;;;4959032;28;87054;-85
2021/05/28 08:14:28;;;;;;;3.90;3.60;;;16.10;99.00;;;;;;4953390;28;87005;-84
2021/05/28 08:16:54;;;;;;;4.20;3.80;;;16.20;98.30;;;;;;4963843;28;88080;-84
2021/05/28 08:19:19;;;;;;;4.78;4.00;;;16.40;97.80;;;;;;4964290;28;86886;-86
2021/05/28 08:21:45;;;;;;;4.32;3.92;;;16.50;96.70;;;;;;4961570;28;87039;-84
2021/05/28 08:24:11;;;;;;;4.60;4.20;;;16.60;97.60;;;;;;4961901;28;87782;-86
2021/05/28 08:26:37;;;;;;;7.10;4.40;;;16.70;97.30;;;;;;4955577;28;87221;-86
2021/05/28 08:29:03;;;;;;;4.32;3.95;;;16.80;97.40;;;;;;4965544;28;86952;-86
2021/05/28 08:31:29;;;;;;;4.15;3.83;;;16.90;97.20;;;;;;4963106;28;87067;-86
2021/05/28 08:33:55;;;;;;;4.20;3.70;;;17.00;96.30;;;;;;4958251;28;86248;-85
2021/05/28 08:36:21;;;;;;;5.10;4.60;;;17.20;96.60;;;;;;4965398;28;86876;-85
2021/05/28 08:38:47;;;;;;;4.47;4.10;;;17.50;95.70;;;;;;4961446;28;87156;-85
2021/05/28 08:41:14;;;;;;;4.35;3.78;;;17.80;95.50;;;;;;4959575;28;88836;-86
2021/05/28 08:43:43;;;;;;;3.85;3.53;;;18.10;94.10;;;;;;4965400;28;88842;-87
2021/05/28 08:46:09;;;;;;;5.85;4.05;;;18.70;93.70;;;;;;4954981;28;86964;-87
2021/05/28 08:48:35;;;;;;;4.13;3.83;;;18.70;94.10;;;;;;4953568;28;87101;-87
2021/05/28 08:51:00;;;;;;;4.63;4.22;;;19.20;93.10;;;;;;4960356;28;88371;-87
2021/05/28 08:53:28;;;;;;;5.10;4.70;;;19.70;90.90;;;;;;4959732;28;86890;-87
2021/05/28 08:55:54;;;;;;;5.32;4.50;;;20.20;89.10;;;;;;4969697;28;86666;-86
2021/05/28 08:58:20;;;;;;;5.05;4.65;;;20.80;84.10;;;;;;4970110;28;86214;-87
2021/05/28 09:00:47;;;;;;;4.85;4.45;;;21.40;82.70;;;;;;4969853;28;87052;-87
2021/05/28 09:03:23;;;;;;;4.75;4.20;;;22.40;78.80;;;;;;4960542;28;87101;-87
2021/05/28 09:05:50;;;;;;;5.45;4.28;;;23.30;72.40;;;;;;4969617;28;87875;-87
2021/05/28 09:08:36;;;;;;;3.80;3.55;;;24.60;65.20;;;;;;4949653;28;87020;-86
2021/05/28 09:11:16;;;;;;;4.10;3.80;;;25.90;58.70;;;;;;4957083;28;87180;-87
2021/05/28 09:13:54;;;;;;;3.70;3.40;;;26.80;54.60;;;;;;4960209;28;87641;-87
2021/05/28 09:16:29;;;;;;;4.45;3.10;;;28.00;52.70;;;;;;4947348;28;87038;-87
2021/05/28 09:19:00;;;;;;;4.80;2.70;;;29.20;48.30;;;;;;4961142;28;87021;-87
2021/05/28 09:21:30;;;;;;;3.10;2.90;;;29.80;45.10;;;;;;4955482;28;87771;-86
2021/05/28 09:23:57;;;;;;;4.10;3.20;;;30.70;43.40;;;;;;4968644;28;88240;-87
2021/05/28 09:26:27;;;;;;;2.95;2.75;;;31.40;41.50;;;;;;4963201;28;86994;-87
2021/05/28 09:28:56;;;;;;;4.32;3.63;;;32.30;40.40;;;;;;4951226;28;87315;-87
2021/05/28 09:31:24;;;;;;;3.40;3.15;;;32.90;41.10;;;;;;4959927;28;88614;-87
2021/05/28 09:33:52;;;;;;;3.00;2.80;;;33.90;39.30;;;;;;4961640;28;88527;-88
2021/05/28 09:36:26;;;;;;;6.25;3.85;;;34.30;37.30;;;;;;4951166;28;86882;-87
2021/05/28 09:39:07;;;;;;;3.30;3.10;;;35.00;36.80;;;;;;4966464;28;86969;-87
2021/05/28 09:41:42;;;;;;;4.30;3.30;;;35.10;35.50;;;;;;4969884;28;86720;-87
2021/05/28 09:44:15;;;;;;;3.47;3.13;;;35.70;34.90;;;;;;4961219;28;86958;-87
2021/05/28 09:46:59;;;;;;;3.15;2.95;;;36.60;34.20;;;;;;4968668;28;87005;-87
2021/05/28 09:49:27;;;;;;;3.17;2.95;;;37.00;33.30;;;;;;4970989;28;86583;-87
2021/05/28 09:52:03;;;;;;;3.10;2.90;;;37.80;33.70;;;;;;4959161;28;87793;-87
2021/05/28 09:54:29;;;;;;;3.00;2.80;;;38.50;31.00;;;;;;4959966;28;86720;-87
2021/05/28 09:56:55;;;;;;;3.17;3.03;;;38.00;31.70;;;;;;4952701;28;87956;-87
2021/05/28 09:59:20;;;;;;;3.05;2.85;;;37.30;31.40;;;;;;4975275;28;87053;-87
2021/05/28 10:01:59;;;;;;;2.80;2.70;;;37.20;32.00;;;;;;4972710;28;87296;-84
2021/05/28 10:04:25;;;;;;;3.30;3.10;;;37.00;32.00;;;;;;4977859;28;86967;-86
2021/05/28 10:06:51;;;;;;;3.47;3.15;;;37.00;31.70;;;;;;4973904;28;86926;-86
2021/05/28 10:09:17;;;;;;;3.10;2.90;;;37.20;32.90;;;;;;4970200;28;87207;-85
2021/05/28 10:11:43;;;;;;;3.05;2.88;;;37.30;31.30;;;;;;4971663;28;87230;-85
2021/05/28 10:14:10;;;;;;;3.50;3.22;;;37.50;31.20;;;;;;4965742;28;87386;-85
2021/05/28 10:16:37;;;;;;;3.70;2.72;;;36.90;31.70;;;;;;4972195;28;86614;-85
2021/05/28 10:19:03;;;;;;;6.47;3.00;;;36.90;31.40;;;;;;4981268;28;86258;-86
2021/05/28 10:21:29;;;;;;;3.05;2.85;;;36.80;31.60;;;;;;4985607;28;87358;-85
2021/05/28 10:23:56;;;;;;;3.17;2.90;;;36.40;32.30;;;;;;4973274;28;88020;-84
2021/05/28 10:26:48;;;;;;;3.58;3.33;;;36.90;31.50;;;;;;4972069;28;86611;-86
2021/05/28 10:29:14;;;;;;;3.28;3.08;;;37.30;31.10;;;;;;4954762;28;86401;-87
2021/05/28 10:31:59;;;;;;;3.35;3.22;;;37.30;30.70;;;;;;4942629;28;90762;-86
2021/05/28 10:34:27;;;;;;;2.97;2.78;;;37.40;30.90;;;;;;4965837;28;88003;-86
2021/05/28 10:36:56;;;;;;;3.30;3.10;;;38.10;31.40;;;;;;4959840;28;86893;-87
2021/05/28 10:39:23;;;;;;;3.10;3.00;;;38.20;30.70;;;;;;4968335;28;86417;-86
2021/05/28 10:41:50;;;;;;;3.33;3.10;;;38.40;29.50;;;;;;4966096;28;87220;-86
2021/05/28 10:44:19;;;;;;;3.13;2.85;;;38.90;29.70;;;;;;4943879;28;88475;-87
2021/05/28 10:46:55;;;;;;;2.70;2.60;;;38.60;29.80;;;;;;4956906;28;87885;-87
2021/05/28 10:49:42;;;;;;;3.30;3.10;;;39.30;29.60;;;;;;4968778;28;86973;-85
2021/05/28 10:52:15;;;;;;;2.75;2.55;;;39.50;29.20;;;;;;4962615;28;88087;-86
2021/05/28 10:54:43;;;;;;;3.42;3.22;;;39.70;29.30;;;;;;4959151;28;87221;-87
2021/05/28 10:57:21;;;;;;;3.10;2.83;;;39.30;28.80;;;;;;4960784;28;87334;-86
2021/05/28 10:59:48;;;;;;;2.90;2.80;;;39.90;28.20;;;;;;4941888;28;87148;-85
2021/05/28 11:02:16;;;;;;;4.45;4.05;;;39.80;28.60;;;;;;4962012;28;87259;-85
2021/05/28 11:04:42;;;;;;;3.40;3.20;;;39.80;28.40;;;;;;4963576;28;86408;-85
2021/05/28 11:07:10;;;;;;;5.78;5.22;;;40.00;27.70;;;;;;4938641;28;87814;-86
2021/05/28 11:09:45;;;;;;;3.40;3.20;;;40.60;28.20;;;;;;4947077;28;87093;-86
2021/05/28 11:12:24;;;;;;;3.40;3.20;;;41.30;28.00;;;;;;4959713;28;88677;-85
2021/05/28 11:15:14;;;;;;;3.25;3.00;;;41.50;26.60;;;;;;4973060;28;87177;-84
2021/05/28 11:18:01;;;;;;;2.83;2.65;;;40.70;26.70;;;;;;4963723;28;87097;-86
2021/05/28 11:20:42;;;;;;;2.70;2.60;;;40.00;26.30;;;;;;4955029;28;87116;-86
2021/05/28 11:23:13;;;;;;;2.92;2.80;;;38.90;26.90;;;;;;4945085;28;91557;-86
2021/05/28 11:25:55;;;;;;;3.90;2.80;;;38.40;27.80;;;;;;4960381;28;86923;-86
2021/05/28 11:28:22;;;;;;;3.42;3.13;;;38.60;28.30;;;;;;4963493;28;86981;-86
2021/05/28 11:30:50;;;;;;;3.90;3.60;;;37.90;28.10;;;;;;4954895;28;86354;-86
2021/05/28 11:33:41;;;;;;;2.97;2.77;;;37.60;28.50;;;;;;4955944;28;87261;-86
2021/05/28 11:36:33;;;;;;;2.50;2.35;;;37.80;28.70;;;;;;4944667;28;87198;-85
2021/05/28 11:39:06;;;;;;;3.00;2.83;;;38.20;28.60;;;;;;4955540;28;88067;-87
2021/05/28 11:42:04;;;;;;;3.08;2.88;;;38.70;28.30;;;;;;4960215;28;87231;-85
2021/05/28 11:44:34;;;;;;;2.77;2.60;;;38.80;28.30;;;;;;4941081;28;88078;-84
2021/05/28 11:47:03;;;;;;;2.92;2.72;;;39.10;27.90;;;;;;4961534;28;86849;-87
2021/05/28 11:49:29;;;;;;;3.50;3.03;;;39.20;27.70;;;;;;4958967;28;86582;-85
2021/05/28 11:52:05;;;;;;;2.85;2.65;;;39.20;27.60;;;;;;4957059;28;87083;-88
2021/05/28 11:54:36;;;;;;;2.60;2.47;;;39.40;27.70;;;;;;4966137;28;86933;-84
2021/05/28 11:57:05;;;;;;;2.88;2.67;;;39.70;27.90;;;;;;4957048;28;87310;-84
2021/05/28 11:59:58;;;;;;;2.85;2.63;;;40.00;27.50;;;;;;4948018;28;86802;-85
2021/05/28 12:02:47;;;;;;;2.85;2.65;;;39.80;27.10;;;;;;4942272;28;86663;-84
2021/05/28 12:05:29;;;;;;;3.30;3.00;;;39.10;27.70;;;;;;4955216;28;89584;-85
2021/05/28 12:07:57;;;;;;;3.15;2.95;;;39.40;28.70;;;;;;4953136;28;88330;-84
2021/05/28 12:10:24;;;;;;;3.22;2.85;;;39.50;27.80;;;;;;4960587;28;87315;-85
2021/05/28 12:13:00;;;;;;;3.72;3.40;;;40.20;27.20;;;;;;4958249;28;86924;-84
2021/05/28 12:15:31;;;;;;;3.30;3.10;;;39.60;28.10;;;;;;4955747;28;87409;-85
2021/05/28 12:17:59;;;;;;;3.15;2.95;;;39.50;27.20;;;;;;4955548;28;87458;-84
2021/05/28 12:20:28;;;;;;;4.07;3.30;;;39.20;27.50;;;;;;4961924;28;87308;-84
2021/05/28 12:23:09;;;;;;;3.15;2.95;;;39.20;27.60;;;;;;4954044;28;86350;-84
2021/05/28 12:25:39;;;;;;;3.40;3.20;;;39.40;28.20;;;;;;4958389;28;87497;-84
2021/05/28 12:28:34;;;;;;;2.92;2.83;;;39.30;27.70;;;;;;4935034;28;90259;-84
2021/05/28 12:31:12;;;;;;;5.43;3.45;;;39.30;28.00;;;;;;4959767;28;87948;-85
2021/05/28 12:33:38;;;;;;;3.00;2.80;;;38.90;27.70;;;;;;4962053;28;86917;-85
2021/05/28 12:36:09;;;;;;;3.28;2.42;;;37.50;28.40;;;;;;4959891;28;87711;-85
2021/05/28 12:38:44;;;;;;;2.78;2.60;;;37.20;28.20;;;;;;4957888;28;88378;-85
2021/05/28 12:41:12;;;;;;;2.75;2.65;;;37.10;29.10;;;;;;4954751;28;86490;-84
2021/05/28 12:43:44;;;;;;;4.65;3.20;;;37.30;29.00;;;;;;4940979;28;87081;-86
2021/05/28 12:46:25;;;;;;;2.85;2.65;;;37.70;28.90;;;;;;4956210;28;87251;-85
2021/05/28 12:49:05;;;;;;;2.80;2.60;;;38.20;28.60;;;;;;4960958;28;87880;-86
2021/05/28 12:51:33;;;;;;;2.70;2.60;;;38.10;28.30;;;;;;4945665;28;87108;-86
2021/05/28 12:54:03;;;;;;;2.72;2.55;;;37.90;28.90;;;;;;4964610;28;86960;-85
2021/05/28 12:56:29;;;;;;;3.13;2.90;;;37.60;28.70;;;;;;4957899;28;88368;-85
2021/05/28 12:58:56;;;;;;;3.17;2.97;;;37.60;29.00;;;;;;4975346;28;87293;-84
2021/05/28 13:01:26;;;;;;;3.15;2.90;;;37.40;29.20;;;;;;4970850;28;87046;-84
2021/05/28 13:04:02;;;;;;;3.55;3.25;;;37.30;28.90;;;;;;4962431;28;86825;-85
2021/05/28 13:06:38;;;;;;;4.28;2.70;;;37.50;28.70;;;;;;4967134;28;87286;-85
2021/05/28 13:09:07;;;;;;;2.70;2.60;;;37.40;29.10;;;;;;4951067;28;87583;-85
2021/05/28 13:11:47;;;;;;;2.80;2.60;;;37.10;29.20;;;;;;4959587;28;87293;-83
2021/05/28 13:14:27;;;;;;;3.00;2.80;;;37.40;29.20;;;;;;4962126;28;86169;-84
2021/05/28 13:16:54;;;;;;;2.80;2.70;;;37.20;28.90;;;;;;4964667;28;86973;-85
2021/05/28 13:19:20;;;;;;;2.80;2.70;;;36.90;28.30;;;;;;4968849;28;87803;-86
2021/05/28 13:21:57;;;;;;;2.70;2.60;;;36.40;28.80;;;;;;4959341;28;88041;-85
2021/05/28 13:24:42;;;;;;;2.70;2.50;;;36.30;29.10;;;;;;4970587;28;87388;-85
2021/05/28 13:27:16;;;;;;;2.88;2.67;;;35.40;29.30;;;;;;4962572;28;87614;-84
2021/05/28 13:29:55;;;;;;;3.00;2.80;;;35.20;29.80;;;;;;4957426;28;89233;-84
2021/05/28 13:32:34;;;;;;;2.65;2.55;;;35.30;29.90;;;;;;4949004;28;88253;-84
2021/05/28 13:35:00;;;;;;;2.93;2.73;;;35.20;29.70;;;;;;4953033;28;86685;-84
2021/05/28 13:37:26;;;;;;;2.90;2.70;;;35.00;30.00;;;;;;4956934;28;87270;-84
2021/05/28 13:39:52;;;;;;;2.60;2.50;;;34.60;29.80;;;;;;4955134;28;87541;-87
2021/05/28 13:42:22;;;;;;;2.80;2.70;;;34.70;30.00;;;;;;4957772;28;86795;-85
2021/05/28 13:44:48;;;;;;;3.15;2.80;;;34.80;29.60;;;;;;4940659;28;87113;-85
2021/05/28 13:47:15;;;;;;;2.63;2.42;;;34.40;29.70;;;;;;4964986;28;87861;-85
2021/05/28 13:49:43;;;;;;;4.35;4.15;;;32.80;29.60;;;;;;4965663;28;89788;-86
2021/05/28 13:52:09;;;;;;;2.42;2.33;;;32.80;29.60;;;;;;4967103;28;87107;-84
2021/05/28 13:54:34;;;;;;;2.90;2.70;;;32.80;29.50;;;;;;4972204;28;86989;-83
2021/05/28 13:57:00;;;;;;;2.55;2.45;;;32.30;30.00;;;;;;4971800;28;87253;-85
2021/05/28 13:59:26;;;;;;;2.75;2.30;;;32.20;31.30;;;;;;4957152;28;86974;-85
2021/05/28 14:01:52;;;;;;;2.70;2.50;;;32.10;31.20;;;;;;4961715;28;86959;-85
2021/05/28 14:04:18;;;;;;;2.35;2.25;;;32.00;31.90;;;;;;4971967;28;86284;-86
2021/05/28 14:06:44;;;;;;;2.20;2.10;;;31.90;31.70;;;;;;4967543;28;87728;-86
2021/05/28 14:09:09;;;;;;;2.60;2.40;;;31.60;31.70;;;;;;4965145;28;87119;-84
2021/05/28 14:11:35;;;;;;;2.50;2.40;;;31.10;31.90;;;;;;4945526;28;88066;-84
2021/05/28 14:14:01;;;;;;;2.60;2.50;;;31.00;33.30;;;;;;4961368;28;87184;-85
2021/05/28 14:16:27;;;;;;;4.60;4.20;;;31.10;33.00;;;;;;4955298;28;87424;-86
2021/05/28 14:18:53;;;;;;;2.20;2.10;;;31.10;33.20;;;;;;4961554;28;87298;-87
2021/05/28 14:21:19;;;;;;;2.30;2.20;;;31.00;33.80;;;;;;4963547;28;87248;-86
2021/05/28 14:23:45;;;;;;;2.72;2.17;;;30.90;34.20;;;;;;4964143;28;87117;-86
2021/05/28 14:26:11;;;;;;;2.30;2.20;;;30.50;32.70;;;;;;4942848;28;92032;-85
2021/05/28 14:28:37;;;;;;;2.58;2.38;;;30.30;32.60;;;;;;4963433;28;87056;-87
2021/05/28 14:31:04;;;;;;;2.38;2.28;;;30.30;34.20;;;;;;4966547;28;86549;-85
2021/05/28 14:33:48;;;;;;;2.40;2.30;;;30.00;32.90;;;;;;4965460;28;87142;-85
2021/05/28 14:36:16;;;;;;;4.80;4.50;;;28.80;34.70;;;;;;4969417;28;88595;-85
2021/05/28 14:38:42;;;;;;;2.47;2.30;;;29.10;35.50;;;;;;4968428;28;88703;-87
2021/05/28 14:41:07;;;;;;;2.60;2.40;;;28.90;35.30;;;;;;4971095;28;87598;-86
2021/05/28 14:43:33;;;;;;;2.50;2.40;;;28.60;35.60;;;;;;4978037;28;87129;-86
2021/05/28 14:46:01;;;;;;;2.88;2.63;;;28.50;36.20;;;;;;4971418;28;87649;-86
2021/05/28 14:48:26;;;;;;;2.75;2.50;;;28.30;35.90;;;;;;4969224;28;87183;-86
2021/05/28 14:50:52;;;;;;;2.50;2.40;;;28.10;35.10;;;;;;4971983;28;87090;-86
2021/05/28 14:53:18;;;;;;;2.40;2.30;;;27.80;34.50;;;;;;4975611;28;86180;-86
2021/05/28 14:55:44;;;;;;;2.42;2.33;;;27.40;35.30;;;;;;4974902;28;87081;-85
2021/05/28 14:58:09;;;;;;;6.28;4.50;;;27.40;36.40;;;;;;4973357;28;87337;-85
2021/05/28 15:00:35;;;;;;;3.00;2.70;;;27.30;35.40;;;;;;4974196;28;88000;-85
2021/05/28 15:03:01;;;;;;;20.90;13.43;;;27.20;34.40;;;;;;4970255;28;86935;-85
2021/05/28 15:05:27;;;;;;;8.77;5.90;;;26.80;34.50;;;;;;4975028;28;86976;-83
2021/05/28 15:07:52;;;;;;;2.95;2.67;;;26.50;36.20;;;;;;4971699;28;87245;-84
2021/05/28 15:10:19;;;;;;;2.60;2.33;;;26.30;34.80;;;;;;4972892;28;86943;-84
2021/05/28 15:12:48;;;;;;;3.10;2.22;;;26.00;34.50;;;;;;4957343;28;87170;-85
2021/05/28 15:15:14;;;;;;;2.20;2.00;;;25.60;35.60;;;;;;4972271;28;87127;-84
2021/05/28 15:17:41;;;;;;;2.40;2.20;;;25.60;35.50;;;;;;4984451;28;86875;-83
2021/05/28 15:20:07;;;;;;;2.40;2.20;;;25.60;35.80;;;;;;4987145;28;86234;-85
2021/05/28 15:22:33;;;;;;;3.10;2.55;;;25.60;35.10;;;;;;4987612;28;86249;-83
2021/05/28 15:24:59;;;;;;;2.17;2.08;;;25.40;35.70;;;;;;4986291;28;88388;-84
2021/05/28 15:27:25;;;;;;;2.50;2.33;;;25.10;36.30;;;;;;4989108;28;87740;-83
2021/05/28 15:29:50;;;;;;;2.53;2.30;;;25.10;37.20;;;;;;4983104;28;87049;-85
2021/05/28 15:32:16;;;;;;;2.40;2.30;;;25.10;37.90;;;;;;4978760;28;86657;-85
2021/05/28 15:34:43;;;;;;;2.55;2.30;;;25.00;38.30;;;;;;4979920;28;87357;-86
2021/05/28 15:37:09;;;;;;;2.40;2.30;;;25.00;38.20;;;;;;4983381;28;86904;-83
2021/05/28 15:39:35;;;;;;;2.60;2.40;;;25.00;39.10;;;;;;4984446;28;86392;-86
2021/05/28 15:42:01;;;;;;;2.30;2.20;;;24.90;39.40;;;;;;4966851;28;86111;-85
2021/05/28 15:44:28;;;;;;;2.30;2.20;;;24.70;39.70;;;;;;4985066;28;87233;-85
2021/05/28 15:46:54;;;;;;;2.85;2.65;;;24.70;39.80;;;;;;4984868;28;87424;-85